createdAt,value
2022-11-24T00:02:19.135Z,15.73
2022-11-24T00:05:05.132Z,18.47
2022-11-24T00:07:50.190Z,14.70
2022-11-24T00:10:35.737Z,17.57
2022-11-24T00:13:20.891Z,16.23
2022-11-24T00:16:23.946Z,16.93
2022-11-24T00:19:09.860Z,18.47
2022-11-24T00:21:55.041Z,17.50
2022-11-24T00:24:40.093Z,16.60
2022-11-24T00:27:24.927Z,14.53
2022-11-24T00:30:10.201Z,17.53
2022-11-24T00:32:55.103Z,17.07
2022-11-24T00:35:40.501Z,17.53
2022-11-24T00:38:26.437Z,17.47
2022-11-24T00:41:12.289Z,21.53
2022-11-24T00:43:58.257Z,20.07
2022-11-24T00:46:43.309Z,22.50
2022-11-24T00:49:28.699Z,20.07
2022-11-24T00:52:13.685Z,19.60
2022-11-24T00:54:58.501Z,17.03
2022-11-24T00:57:46.379Z,21.30
2022-11-24T01:00:31.339Z,19.27
2022-11-24T01:03:17.457Z,23.63
2022-11-24T01:06:08.519Z,21.57
2022-11-24T01:08:54.217Z,28.50
2022-11-24T01:11:39.218Z,22.20
2022-11-24T01:14:25.384Z,22.07
2022-11-24T01:17:10.288Z,20.93
2022-11-24T01:19:55.596Z,20.63
2022-11-24T01:22:41.091Z,25.33
2022-11-24T01:25:26.021Z,22.07
2022-11-24T01:28:10.931Z,26.83
2022-11-24T01:31:04.320Z,24.03
2022-11-24T01:33:49.614Z,27.33
2022-11-24T01:36:34.759Z,25.70
2022-11-24T01:39:20.220Z,24.83
2022-11-24T01:42:05.346Z,25.57
2022-11-24T01:45:33.900Z,25.60
2022-11-24T01:48:34.852Z,25.60
2022-11-24T01:51:25.152Z,26.17
2022-11-24T01:54:40.140Z,29.33
2022-11-24T01:57:30.160Z,25.77
2022-11-24T02:00:16.233Z,26.17
2022-11-24T02:03:01.621Z,29.17
2022-11-24T02:06:13.354Z,32.10
2022-11-24T02:09:22.737Z,30.00
2022-11-24T02:12:08.234Z,34.83
2022-11-24T02:14:54.831Z,34.83
2022-11-24T02:17:40.290Z,33.23
2022-11-24T02:20:26.106Z,30.27
2022-11-24T02:23:24.152Z,28.97
2022-11-24T02:26:27.830Z,31.23
2022-11-24T02:29:14.197Z,33.33
2022-11-24T02:32:01.816Z,28.13
2022-11-24T02:34:47.165Z,25.67
2022-11-24T02:37:32.041Z,25.67
2022-11-24T02:40:21.603Z,28.97
2022-11-24T02:43:15.318Z,24.60
2022-11-24T02:46:00.173Z,29.10
2022-11-24T02:48:45.655Z,28.70
2022-11-24T02:51:30.789Z,25.43
2022-11-24T02:54:16.020Z,33.87
2022-11-24T02:57:00.893Z,27.10
2022-11-24T02:59:45.710Z,32.27
2022-11-24T03:02:31.279Z,26.13
2022-11-24T03:05:16.882Z,30.23
2022-11-24T03:08:02.034Z,24.10
2022-11-24T03:10:47.230Z,29.70
2022-11-24T03:13:32.716Z,29.80
2022-11-24T03:16:17.785Z,34.03
2022-11-24T03:19:02.730Z,27.90
2022-11-24T03:21:47.660Z,31.03
2022-11-24T03:24:33.203Z,25.50
2022-11-24T03:27:18.637Z,28.53
2022-11-24T03:30:04.443Z,31.77
2022-11-24T03:32:54.071Z,24.47
2022-11-24T03:35:39.166Z,29.30
2022-11-24T03:38:24.598Z,25.20
2022-11-24T03:41:11.142Z,23.60
2022-11-24T03:43:56.129Z,26.20
2022-11-24T03:46:41.605Z,22.20
2022-11-24T03:49:27.012Z,24.13
2022-11-24T03:52:11.907Z,32.60
2022-11-24T03:54:57.264Z,27.13
2022-11-24T03:57:42.639Z,26.77
2022-11-24T04:00:27.756Z,26.73
2022-11-24T04:03:12.979Z,30.77
2022-11-24T04:05:58.354Z,27.07
2022-11-24T04:08:43.496Z,28.93
2022-11-24T04:11:28.659Z,23.93
2022-11-24T04:14:14.014Z,23.83
2022-11-24T04:16:59.169Z,24.13
2022-11-24T04:19:43.942Z,26.67
2022-11-24T04:22:29.066Z,27.37
2022-11-24T04:25:14.500Z,28.13
2022-11-24T04:27:59.380Z,26.97
2022-11-24T04:30:45.132Z,22.60
2022-11-24T04:33:31.030Z,24.97
2022-11-24T04:36:15.947Z,25.83
2022-11-24T04:39:20.122Z,29.97
2022-11-24T04:42:06.342Z,27.23
2022-11-24T04:44:52.097Z,26.17
2022-11-24T04:47:38.133Z,27.57
2022-11-24T04:50:23.322Z,27.57
2022-11-24T04:53:10.167Z,28.13
2022-11-24T04:55:55.474Z,27.33
2022-11-24T04:58:40.522Z,25.77
2022-11-24T05:01:25.588Z,25.63
2022-11-24T05:04:12.479Z,26.27
2022-11-24T05:06:57.446Z,28.07
2022-11-24T05:09:58.945Z,26.10
2022-11-24T05:12:51.002Z,26.00
2022-11-24T05:15:38.165Z,28.00
2022-11-24T05:18:23.960Z,24.40
2022-11-24T05:21:08.930Z,26.27
2022-11-24T05:23:53.764Z,30.23
2022-11-24T05:26:38.702Z,21.47
2022-11-24T05:29:23.605Z,25.40
2022-11-24T05:32:08.540Z,26.40
2022-11-24T05:34:53.330Z,27.07
2022-11-24T05:37:38.797Z,21.33
2022-11-24T05:40:24.497Z,26.23
2022-11-24T05:43:13.556Z,29.50
2022-11-24T05:46:00.416Z,26.33
2022-11-24T05:48:45.749Z,29.30
2022-11-24T05:51:30.870Z,22.50
2022-11-24T05:54:16.035Z,28.20
2022-11-24T05:57:01.184Z,31.23
2022-11-24T05:59:46.523Z,22.83
2022-11-24T06:02:31.616Z,26.43
2022-11-24T06:05:17.068Z,29.67
2022-11-24T06:08:02.006Z,24.43
2022-11-24T06:10:46.976Z,23.27
2022-11-24T06:13:32.319Z,26.00
2022-11-24T06:16:17.616Z,24.03
2022-11-24T06:19:03.000Z,31.67
2022-11-24T06:21:48.391Z,30.73
2022-11-24T06:24:33.559Z,24.27
2022-11-24T06:27:19.304Z,25.33
2022-11-24T06:30:05.116Z,24.00
2022-11-24T06:32:54.893Z,27.33
2022-11-24T06:35:40.027Z,34.27
2022-11-24T06:38:25.051Z,26.97
2022-11-24T06:41:13.606Z,27.33
2022-11-24T06:44:03.813Z,29.60
2022-11-24T06:46:49.048Z,31.30
2022-11-24T06:49:37.255Z,28.33
2022-11-24T06:52:23.423Z,27.87
2022-11-24T06:55:08.643Z,33.60
2022-11-24T06:57:53.799Z,30.10
2022-11-24T07:00:39.406Z,31.27
2022-11-24T07:03:24.600Z,30.93
2022-11-24T07:06:10.236Z,31.33
2022-11-24T07:08:55.401Z,34.33
2022-11-24T07:11:41.148Z,32.47
2022-11-24T07:14:26.421Z,30.80
2022-11-24T07:17:11.860Z,34.17
2022-11-24T07:19:56.657Z,30.63
2022-11-24T07:22:46.895Z,36.47
2022-11-24T07:25:32.026Z,30.90
2022-11-24T07:28:16.848Z,31.53
2022-11-24T07:31:11.303Z,35.17
2022-11-24T07:33:56.403Z,32.20
2022-11-24T07:36:42.384Z,28.23
2022-11-24T07:39:27.570Z,37.23
2022-11-24T07:42:13.110Z,33.33
2022-11-24T07:44:58.209Z,33.07
2022-11-24T07:47:44.014Z,40.73
2022-11-24T07:50:29.754Z,33.63
2022-11-24T07:53:15.648Z,38.10
2022-11-24T07:56:02.345Z,34.63
2022-11-24T07:58:52.600Z,31.03
2022-11-24T08:01:38.483Z,40.33
2022-11-24T08:04:23.793Z,37.47
2022-11-24T08:07:08.835Z,38.23
2022-11-24T08:09:54.343Z,34.10
2022-11-24T08:12:39.237Z,33.37
2022-11-24T08:15:24.035Z,36.00
2022-11-24T08:18:09.706Z,36.77
2022-11-24T08:20:58.268Z,40.87
2022-11-24T08:23:43.229Z,34.37
2022-11-24T08:26:28.273Z,32.33
2022-11-24T08:29:14.329Z,40.27
2022-11-24T08:31:59.495Z,40.43
2022-11-24T08:34:45.072Z,35.83
2022-11-24T08:37:29.804Z,35.33
2022-11-24T08:40:14.829Z,35.80
2022-11-24T08:43:00.948Z,39.03
2022-11-24T08:45:45.892Z,36.20
2022-11-24T08:48:33.876Z,28.03
2022-11-24T08:51:22.927Z,29.03
2022-11-24T08:54:10.233Z,32.17
2022-11-24T08:56:55.762Z,33.07
2022-11-24T08:59:40.755Z,32.60
2022-11-24T09:02:26.205Z,34.30
2022-11-24T09:05:43.331Z,28.30
2022-11-24T09:08:16.374Z,33.17
2022-11-24T09:11:08.077Z,26.80
2022-11-24T09:13:54.507Z,32.80
2022-11-24T09:16:40.032Z,32.23
2022-11-24T09:19:25.114Z,27.70
2022-11-24T09:22:10.488Z,30.90
2022-11-24T09:24:55.983Z,29.13
2022-11-24T09:27:40.985Z,25.30
2022-11-24T09:30:26.408Z,27.33
2022-11-24T09:33:11.283Z,31.23
2022-11-24T09:35:56.836Z,23.23
2022-11-24T09:38:41.883Z,25.87
2022-11-24T09:41:57.660Z,29.60
2022-11-24T09:45:04.566Z,26.13
2022-11-24T09:48:01.097Z,26.23
2022-11-24T09:50:49.411Z,25.53
2022-11-24T09:53:39.616Z,27.93
2022-11-24T09:56:31.074Z,23.00
2022-11-24T09:59:24.547Z,22.13
2022-11-24T10:02:12.607Z,18.87
2022-11-24T10:04:57.813Z,18.83
2022-11-24T10:07:55.045Z,14.73
2022-11-24T10:10:54.803Z,20.10
2022-11-24T10:13:49.124Z,17.03
2022-11-24T10:17:02.972Z,16.43
2022-11-24T10:20:24.196Z,15.73
2022-11-24T10:23:31.893Z,17.17
2022-11-24T10:26:18.348Z,21.20
2022-11-24T10:29:20.329Z,21.13
2022-11-24T10:32:19.545Z,20.87
2022-11-24T10:35:20.940Z,19.33
2022-11-24T10:38:20.586Z,19.70
2022-11-24T10:41:14.260Z,20.77
2022-11-24T10:43:59.079Z,18.33
2022-11-24T10:46:44.692Z,20.83
2022-11-24T10:49:32.268Z,19.80
2022-11-24T10:52:18.883Z,19.37
2022-11-24T10:55:05.464Z,18.87
2022-11-24T10:57:50.554Z,17.47
2022-11-24T11:00:35.908Z,18.30
2022-11-24T11:03:26.701Z,18.37
2022-11-24T11:06:13.816Z,19.47
2022-11-24T11:09:08.219Z,16.60
2022-11-24T11:11:53.445Z,15.83
2022-11-24T11:14:38.654Z,19.30
2022-11-24T11:17:34.299Z,17.63
2022-11-24T11:20:27.653Z,16.63
2022-11-24T11:23:16.284Z,17.00
2022-11-24T11:26:32.520Z,18.80
2022-11-24T11:35:33.626Z,18.97
2022-11-24T11:38:19.456Z,19.10
2022-11-24T11:41:07.067Z,17.83
2022-11-24T11:44:01.860Z,16.67
2022-11-24T11:46:47.392Z,19.13
2022-11-24T11:49:32.959Z,18.77
2022-11-24T11:52:46.235Z,18.10
2022-11-24T11:55:49.655Z,16.50
2022-11-24T12:01:25.495Z,18.80
2022-11-24T12:04:31.309Z,18.60
2022-11-24T12:07:43.244Z,17.60
2022-11-24T12:10:42.021Z,23.13
2022-11-24T12:13:36.298Z,17.80
2022-11-24T12:16:24.495Z,18.77
2022-11-24T12:19:28.880Z,23.37
2022-11-24T12:22:37.125Z,20.47
2022-11-24T12:26:04.903Z,22.23
2022-11-24T12:28:55.665Z,20.50
2022-11-24T12:32:06.865Z,22.73
2022-11-24T12:35:20.679Z,23.77
2022-11-24T12:38:44.815Z,25.07
2022-11-24T12:42:13.794Z,21.70
2022-11-24T12:45:12.667Z,23.30
2022-11-24T12:48:16.315Z,26.13
2022-11-24T12:51:04.495Z,22.67
2022-11-24T12:53:50.856Z,21.73
2022-11-24T12:57:09.259Z,21.43
2022-11-24T13:00:04.900Z,22.17
2022-11-24T13:03:19.080Z,20.20
2022-11-24T13:06:27.816Z,26.13
2022-11-24T13:09:14.113Z,24.83
2022-11-24T13:12:13.655Z,21.57
2022-11-24T13:14:59.191Z,20.40
2022-11-24T13:18:05.272Z,23.97
2022-11-24T13:20:55.919Z,21.20
2022-11-24T13:23:41.280Z,25.50
2022-11-24T13:26:42.090Z,25.67
2022-11-24T13:29:58.427Z,28.30
2022-11-24T13:32:43.332Z,24.20
2022-11-24T13:35:29.293Z,22.93
2022-11-24T13:38:48.461Z,24.73
2022-11-24T13:41:33.644Z,24.57
2022-11-24T13:44:25.162Z,22.93
2022-11-24T13:47:47.445Z,22.97
2022-11-24T13:50:54.606Z,27.27
2022-11-24T13:53:45.090Z,24.87
2022-11-24T13:56:31.166Z,24.37
2022-11-24T13:59:24.259Z,29.93
2022-11-24T14:02:23.255Z,26.67
2022-11-24T14:05:13.463Z,22.73
2022-11-24T14:07:58.433Z,20.37
2022-11-24T14:10:43.603Z,26.83
2022-11-24T14:13:29.966Z,24.00
2022-11-24T14:16:14.857Z,24.13
2022-11-24T14:19:09.960Z,26.53
2022-11-24T14:21:55.334Z,29.80
2022-11-24T14:24:41.831Z,27.30
2022-11-24T14:27:38.929Z,24.70
2022-11-24T14:30:25.510Z,25.90
2022-11-24T14:33:11.984Z,26.43
2022-11-24T14:35:56.862Z,28.80
2022-11-24T14:38:42.627Z,25.00
2022-11-24T14:41:27.684Z,30.33
2022-11-24T14:44:19.813Z,22.60
2022-11-24T14:47:31.631Z,25.87
2022-11-24T14:50:18.685Z,24.33
2022-11-24T14:53:14.948Z,22.27
2022-11-24T14:56:27.031Z,23.93
2022-11-24T14:59:27.778Z,23.13
2022-11-24T15:02:40.203Z,21.37
2022-11-24T15:05:51.519Z,24.37
2022-11-24T15:08:46.861Z,25.43
2022-11-24T15:11:35.233Z,25.53
2022-11-24T15:14:36.671Z,27.20
2022-11-24T15:17:24.983Z,24.20
2022-11-24T15:20:17.273Z,23.60
2022-11-24T15:23:22.886Z,24.00
2022-11-24T15:26:11.266Z,23.00
2022-11-24T15:28:56.242Z,24.80
2022-11-24T15:31:45.119Z,25.23
2022-11-24T15:34:33.025Z,22.67
2022-11-24T15:37:18.143Z,24.77
2022-11-24T15:40:03.167Z,25.40
2022-11-24T15:42:59.637Z,25.50
2022-11-24T15:45:48.478Z,27.27
2022-11-24T15:48:33.876Z,29.90
2022-11-24T15:51:19.624Z,27.27
2022-11-24T15:54:04.976Z,34.17
2022-11-24T15:56:50.146Z,30.23
2022-11-24T15:59:34.951Z,31.33
2022-11-24T16:02:20.435Z,32.10
2022-11-24T16:05:08.618Z,24.27
2022-11-24T16:07:54.087Z,27.27
2022-11-24T16:10:41.639Z,27.10
2022-11-24T16:13:27.770Z,29.93
2022-11-24T16:16:13.603Z,34.47
2022-11-24T16:18:58.940Z,24.67
2022-11-24T16:21:47.704Z,27.87
2022-11-24T16:24:33.047Z,34.37
2022-11-24T16:27:20.065Z,32.87
2022-11-24T16:30:07.550Z,32.00
2022-11-24T16:32:55.955Z,29.47
2022-11-24T16:35:41.483Z,33.63
2022-11-24T16:38:26.659Z,31.47
2022-11-24T16:41:12.233Z,31.17
2022-11-24T16:44:01.512Z,28.43
2022-11-24T16:46:46.293Z,30.87
2022-11-24T16:49:31.364Z,33.53
2022-11-24T16:52:16.823Z,33.67
2022-11-24T16:55:01.741Z,32.80
2022-11-24T16:57:46.833Z,32.27
2022-11-24T17:00:35.075Z,35.67
2022-11-24T17:03:23.628Z,34.23
2022-11-24T17:06:11.592Z,34.47
2022-11-24T17:09:00.231Z,35.23
2022-11-24T17:11:45.489Z,32.97
2022-11-24T17:14:30.529Z,33.53
2022-11-24T17:17:15.701Z,36.47
2022-11-24T17:20:00.959Z,38.33
2022-11-24T17:22:46.340Z,36.13
2022-11-24T17:25:32.620Z,40.17
2022-11-24T17:28:17.745Z,42.40
2022-11-24T17:31:27.994Z,42.27
2022-11-24T17:34:13.735Z,44.53
2022-11-24T17:36:58.875Z,42.63
2022-11-24T17:39:54.824Z,35.47
2022-11-24T17:42:48.951Z,36.70
2022-11-24T17:45:34.424Z,35.47
2022-11-24T17:48:19.747Z,37.37
2022-11-24T17:51:13.210Z,38.97
2022-11-24T17:53:58.213Z,33.87
2022-11-24T17:56:43.877Z,37.20
2022-11-24T17:59:28.939Z,40.30
2022-11-24T18:02:13.880Z,42.87
2022-11-24T18:04:59.278Z,43.60
2022-11-24T18:07:44.627Z,36.50
2022-11-24T18:10:32.292Z,35.33
2022-11-24T18:13:34.112Z,50.30
2022-11-24T18:16:23.302Z,40.07
2022-11-24T18:19:09.894Z,45.27
2022-11-24T18:21:55.767Z,44.53
2022-11-24T18:24:41.155Z,41.13
2022-11-24T18:27:26.153Z,38.37
2022-11-24T18:30:11.568Z,39.80
2022-11-24T18:32:58.525Z,34.63
2022-11-24T18:36:02.392Z,38.10
2022-11-24T18:38:47.604Z,38.83
2022-11-24T18:41:32.745Z,39.20
2022-11-24T18:44:18.000Z,43.53
2022-11-24T18:47:04.309Z,39.67
2022-11-24T18:49:49.542Z,41.17
2022-11-24T18:52:34.493Z,40.80
2022-11-24T18:55:19.309Z,41.10
2022-11-24T18:58:05.837Z,47.50
2022-11-24T19:00:51.973Z,43.57
2022-11-24T19:03:43.598Z,46.37
2022-11-24T19:06:36.422Z,39.00
2022-11-24T19:09:21.681Z,45.83
2022-11-24T19:12:09.252Z,40.17
2022-11-24T19:14:55.621Z,42.23
2022-11-24T19:17:47.210Z,42.03
2022-11-24T19:20:33.963Z,37.40
2022-11-24T19:23:20.435Z,41.53
2022-11-24T19:26:08.168Z,35.07
2022-11-24T19:28:53.020Z,38.73
2022-11-24T19:31:38.507Z,35.17
2022-11-24T19:34:24.225Z,36.27
2022-11-24T19:37:09.720Z,33.67
2022-11-24T19:39:54.753Z,38.73
2022-11-24T19:42:40.097Z,37.70
2022-11-24T19:45:25.331Z,37.80
2022-11-24T19:48:10.806Z,33.27
2022-11-24T19:51:04.457Z,39.57
2022-11-24T19:53:49.771Z,39.73
2022-11-24T19:56:36.461Z,36.70
2022-11-24T19:59:21.579Z,34.57
2022-11-24T20:02:07.062Z,31.23
2022-11-24T20:04:52.795Z,48.60
2022-11-24T20:07:37.787Z,36.93
2022-11-24T20:10:23.022Z,34.63
2022-11-24T20:13:08.011Z,34.17
2022-11-24T20:15:53.049Z,39.23
2022-11-24T20:18:42.331Z,37.93
2022-11-24T20:21:29.343Z,34.33
2022-11-24T20:24:19.773Z,39.33
2022-11-24T20:27:04.916Z,37.43
2022-11-24T20:29:49.796Z,34.43
2022-11-24T20:32:35.187Z,41.73
2022-11-24T20:35:20.079Z,38.93
2022-11-24T20:38:05.102Z,38.67
2022-11-24T20:40:50.020Z,38.53
2022-11-24T20:43:36.139Z,41.13
2022-11-24T20:46:26.980Z,40.67
2022-11-24T20:49:15.784Z,40.90
2022-11-24T20:52:00.817Z,41.60
2022-11-24T20:54:46.318Z,39.30
2022-11-24T20:57:31.528Z,42.90
2022-11-24T21:00:16.737Z,35.33
2022-11-24T21:03:02.931Z,43.23
2022-11-24T21:05:54.798Z,33.80
2022-11-24T21:08:42.302Z,41.27
2022-11-24T21:11:28.117Z,41.83
2022-11-24T21:14:13.135Z,35.57
2022-11-24T21:16:58.188Z,40.20
2022-11-24T21:19:43.411Z,41.13
2022-11-24T21:22:28.585Z,39.20
2022-11-24T21:25:19.657Z,43.40
2022-11-24T21:28:05.203Z,41.50
2022-11-24T21:30:50.153Z,35.50
2022-11-24T21:33:42.730Z,40.60
2022-11-24T21:36:28.003Z,42.17
2022-11-24T21:39:14.399Z,31.80
2022-11-24T21:41:59.630Z,38.73
2022-11-24T21:44:44.638Z,35.87
2022-11-24T21:47:29.415Z,41.67
2022-11-24T21:50:15.994Z,38.57
2022-11-24T21:53:03.578Z,33.67
2022-11-24T21:55:59.782Z,34.43
2022-11-24T21:58:50.257Z,36.77
2022-11-24T22:01:36.031Z,44.80
2022-11-24T22:04:21.284Z,40.10
2022-11-24T22:07:06.178Z,37.97
2022-11-24T22:09:51.457Z,35.53
2022-11-24T22:12:36.882Z,38.60
2022-11-24T22:15:22.360Z,39.37
2022-11-24T22:18:07.651Z,32.60
2022-11-24T22:20:55.788Z,36.33
2022-11-24T22:23:41.266Z,36.53
2022-11-24T22:26:28.026Z,40.33
2022-11-24T22:29:19.388Z,33.90
2022-11-24T22:32:04.679Z,33.23
2022-11-24T22:34:49.867Z,34.63
2022-11-24T22:37:34.755Z,29.50
2022-11-24T22:40:19.708Z,30.40
2022-11-24T22:43:04.987Z,31.40
2022-11-24T22:45:49.987Z,33.10
2022-11-24T22:48:35.562Z,29.03
2022-11-24T22:51:26.203Z,33.83
2022-11-24T22:54:12.139Z,30.60
2022-11-24T22:56:56.991Z,30.90
2022-11-24T22:59:41.940Z,31.10
2022-11-24T23:02:28.288Z,29.40
2022-11-24T23:05:17.997Z,29.17
2022-11-24T23:08:05.720Z,33.37
2022-11-24T23:10:51.021Z,30.93
2022-11-24T23:13:36.407Z,31.80
2022-11-24T23:16:22.245Z,32.43
2022-11-24T23:19:08.504Z,31.33
2022-11-24T23:21:53.567Z,27.83
2022-11-24T23:24:38.484Z,32.97
2022-11-24T23:27:23.696Z,28.97
2022-11-24T23:30:08.860Z,26.67
2022-11-24T23:32:54.077Z,26.77
2022-11-24T23:35:39.305Z,28.27
2022-11-24T23:38:26.696Z,29.07
2022-11-24T23:41:17.857Z,27.30
2022-11-24T23:44:03.420Z,28.37
2022-11-24T23:46:48.624Z,32.53
2022-11-24T23:49:33.565Z,26.23
2022-11-24T23:52:18.348Z,30.47
2022-11-24T23:55:03.652Z,33.83
2022-11-24T23:57:48.517Z,28.20
